createdAt,value
2019-05-26T00:00:41.861Z,100.00
2019-05-26T00:03:16.071Z,100.00
2019-05-26T00:05:48.549Z,100.00
2019-05-26T00:08:21.224Z,100.00
2019-05-26T00:10:53.595Z,100.00
2019-05-26T00:13:25.966Z,100.00
2019-05-26T00:15:58.239Z,100.00
2019-05-26T00:18:33.301Z,100.00
2019-05-26T00:21:04.438Z,100.00
2019-05-26T00:23:36.792Z,100.00
2019-05-26T00:26:09.265Z,100.00
2019-05-26T00:28:41.646Z,100.00
2019-05-26T00:31:14.216Z,100.00
2019-05-26T00:33:46.689Z,100.00
2019-05-26T00:36:19.063Z,100.00
2019-05-26T00:38:51.743Z,100.00
2019-05-26T00:41:24.216Z,100.00
2019-05-26T00:43:56.592Z,100.00
2019-05-26T00:46:29.015Z,100.00
2019-05-26T00:49:01.640Z,100.00
2019-05-26T00:51:34.012Z,100.00
2019-05-26T00:54:06.792Z,100.00
2019-05-26T00:56:39.163Z,100.00
2019-05-26T00:59:11.848Z,100.00
2019-05-26T01:01:44.216Z,100.00
2019-05-26T01:04:16.800Z,100.00
2019-05-26T01:06:49.268Z,100.00
2019-05-26T01:09:21.643Z,100.00
2019-05-26T01:11:53.811Z,100.00
2019-05-26T01:14:26.175Z,100.00
2019-05-26T01:16:58.547Z,100.00
2019-05-26T01:19:30.720Z,100.00
2019-05-26T01:22:03.293Z,100.00
2019-05-26T01:24:35.978Z,100.00
2019-05-26T01:27:08.248Z,100.00
2019-05-26T01:29:40.821Z,100.00
2019-05-26T01:32:13.297Z,100.00
2019-05-26T01:34:45.870Z,100.00
2019-05-26T01:37:19.062Z,100.00
2019-05-26T01:39:51.654Z,100.00
2019-05-26T01:42:23.903Z,100.00
2019-05-26T01:44:56.489Z,100.00
2019-05-26T01:47:28.860Z,100.00
2019-05-26T01:50:01.230Z,100.00
2019-05-26T01:52:33.403Z,100.00
2019-05-26T01:55:06.843Z,100.00
2019-05-26T01:57:39.374Z,100.00
2019-05-26T02:00:12.047Z,100.00
2019-05-26T02:02:44.625Z,100.00
2019-05-26T02:05:17.104Z,100.00
2019-05-26T02:07:49.673Z,100.00
2019-05-26T02:10:22.560Z,100.00
2019-05-26T02:12:54.722Z,100.00
2019-05-26T02:15:28.025Z,100.00
2019-05-26T02:18:00.136Z,100.00
2019-05-26T02:20:32.461Z,100.00
2019-05-26T02:23:05.239Z,100.00
2019-05-26T02:25:37.508Z,100.00
2019-05-26T02:28:09.777Z,100.00
2019-05-26T02:30:41.959Z,100.00
2019-05-26T02:33:14.420Z,100.00
2019-05-26T02:35:46.800Z,100.00
2019-05-26T02:38:19.068Z,100.00
2019-05-26T02:40:51.847Z,100.00
2019-05-26T02:43:24.417Z,100.00
2019-05-26T02:45:57.108Z,100.00
2019-05-26T02:48:29.398Z,100.00
2019-05-26T02:51:01.635Z,100.00
2019-05-26T02:53:34.115Z,100.00
2019-05-26T02:56:06.699Z,100.00
2019-05-26T02:58:39.072Z,100.00
2019-05-26T03:01:11.843Z,100.00
2019-05-26T03:03:44.328Z,100.00
2019-05-26T03:06:16.794Z,100.00
2019-05-26T03:08:49.064Z,100.00
2019-05-26T03:11:21.650Z,100.00
2019-05-26T03:13:54.836Z,100.00
2019-05-26T03:16:27.133Z,99.68
2019-05-26T03:18:59.577Z,97.95
2019-05-26T03:21:33.224Z,98.15
2019-05-26T03:24:05.448Z,98.43
2019-05-26T03:26:38.124Z,98.39
2019-05-26T03:29:10.510Z,98.26
2019-05-26T03:31:43.074Z,97.52
2019-05-26T03:34:15.756Z,96.34
2019-05-26T03:36:47.926Z,96.24
2019-05-26T03:39:20.395Z,95.21
2019-05-26T03:41:52.890Z,94.92
2019-05-26T03:44:25.219Z,94.71
2019-05-26T03:46:58.126Z,94.93
2019-05-26T03:49:30.617Z,94.46
2019-05-26T03:52:02.789Z,93.55
2019-05-26T03:54:35.140Z,93.77
2019-05-26T03:57:07.713Z,92.03
2019-05-26T03:59:40.094Z,91.89
2019-05-26T04:02:13.889Z,92.26
2019-05-26T04:04:46.471Z,92.16
2019-05-26T04:07:19.241Z,92.62
2019-05-26T04:10:04.073Z,92.26
2019-05-26T04:12:25.431Z,92.45
2019-05-26T04:14:58.517Z,91.96
2019-05-26T04:17:30.896Z,91.60
2019-05-26T04:20:03.779Z,90.96
2019-05-26T04:22:36.047Z,91.61
2019-05-26T04:25:08.524Z,91.74
2019-05-26T04:27:41.096Z,90.96
2019-05-26T04:30:13.165Z,90.91
2019-05-26T04:32:45.958Z,91.26
2019-05-26T04:35:18.319Z,91.45
2019-05-26T04:37:50.910Z,90.44
2019-05-26T04:40:27.143Z,88.39
2019-05-26T04:42:57.374Z,87.68
2019-05-26T04:45:29.613Z,86.72
2019-05-26T04:48:01.930Z,86.02
2019-05-26T04:50:34.097Z,83.92
2019-05-26T04:53:07.443Z,82.75
2019-05-26T04:55:39.667Z,80.90
2019-05-26T04:58:12.322Z,79.73
2019-05-26T05:00:44.647Z,79.36
2019-05-26T05:03:16.936Z,76.68
2019-05-26T05:05:49.426Z,70.82
2019-05-26T05:08:21.511Z,65.48
2019-05-26T05:10:53.719Z,60.15
2019-05-26T05:13:25.977Z,57.48
2019-05-26T05:15:57.912Z,57.89
2019-05-26T05:18:30.033Z,58.27
2019-05-26T05:21:02.420Z,61.63
2019-05-26T05:23:34.517Z,63.46
2019-05-26T05:26:06.907Z,64.66
2019-05-26T05:28:39.234Z,65.91
2019-05-26T05:31:12.132Z,67.13
2019-05-26T05:33:44.633Z,66.31
2019-05-26T05:36:17.088Z,67.52
2019-05-26T05:38:49.373Z,68.88
2019-05-26T05:41:21.964Z,67.62
2019-05-26T05:43:54.688Z,67.47
2019-05-26T05:46:26.730Z,65.18
2019-05-26T05:48:59.368Z,64.67
2019-05-26T05:51:32.572Z,63.39
2019-05-26T05:54:05.084Z,64.72
2019-05-26T05:56:37.295Z,65.45
2019-05-26T05:59:09.900Z,66.05
2019-05-26T06:01:42.348Z,66.61
2019-05-26T06:04:14.722Z,67.29
2019-05-26T06:06:47.102Z,67.75
2019-05-26T06:09:19.470Z,67.87
2019-05-26T06:11:56.453Z,67.61
2019-05-26T06:14:25.803Z,67.35
2019-05-26T06:16:57.929Z,66.54
2019-05-26T06:19:30.293Z,64.39
2019-05-26T06:22:02.373Z,61.16
2019-05-26T06:24:34.936Z,58.01
2019-05-26T06:27:08.337Z,57.48
2019-05-26T06:29:40.722Z,58.26
2019-05-26T06:32:13.494Z,55.17
2019-05-26T06:34:46.372Z,50.80
2019-05-26T06:37:18.525Z,45.92
2019-05-26T06:39:50.936Z,40.91
2019-05-26T06:42:23.093Z,39.69
2019-05-26T06:44:55.677Z,36.99
2019-05-26T06:47:28.139Z,35.63
2019-05-26T06:50:00.390Z,34.61
2019-05-26T06:52:32.358Z,36.30
2019-05-26T06:55:05.801Z,39.52
2019-05-26T06:57:39.254Z,42.48
2019-05-26T07:00:11.862Z,44.41
2019-05-26T07:02:43.798Z,45.60
2019-05-26T07:05:18.502Z,47.36
2019-05-26T07:07:52.156Z,46.45
2019-05-26T07:10:24.391Z,43.18
2019-05-26T07:12:56.570Z,40.50
2019-05-26T07:15:29.132Z,38.56
2019-05-26T07:18:01.215Z,36.52
2019-05-26T07:20:34.597Z,37.73
2019-05-26T07:23:08.297Z,38.95
2019-05-26T07:25:41.184Z,39.48
2019-05-26T07:28:13.558Z,37.16
2019-05-26T07:30:46.021Z,35.08
2019-05-26T07:33:18.710Z,32.98
2019-05-26T07:35:51.349Z,33.05
2019-05-26T07:38:24.716Z,32.90
2019-05-26T07:40:57.241Z,32.44
2019-05-26T07:43:29.313Z,31.81
2019-05-26T07:46:02.020Z,30.87
2019-05-26T07:48:35.978Z,30.59
2019-05-26T07:51:08.377Z,29.60
2019-05-26T07:53:40.342Z,29.35
2019-05-26T07:56:13.069Z,32.32
2019-05-26T07:58:45.216Z,33.68
2019-05-26T08:01:17.999Z,31.29
2019-05-26T08:03:50.053Z,29.97
2019-05-26T08:06:23.648Z,29.46
2019-05-26T08:08:56.011Z,28.34
2019-05-26T08:11:29.127Z,30.19
2019-05-26T08:14:01.464Z,32.90
2019-05-26T08:16:33.948Z,33.42
2019-05-26T08:19:07.372Z,30.08
2019-05-26T08:21:39.911Z,28.71
2019-05-26T08:24:12.700Z,27.37
2019-05-26T08:26:45.235Z,27.67
2019-05-26T08:29:16.753Z,28.00
2019-05-26T08:31:48.894Z,31.16
2019-05-26T08:34:21.187Z,31.35
2019-05-26T08:36:53.654Z,33.34
2019-05-26T08:39:26.831Z,38.91
2019-05-26T08:41:59.507Z,43.03
2019-05-26T08:44:32.011Z,44.47
2019-05-26T08:47:04.944Z,44.41
2019-05-26T08:49:37.797Z,41.25
2019-05-26T08:52:10.019Z,36.72
2019-05-26T08:54:42.494Z,32.37
2019-05-26T08:57:15.623Z,30.35
2019-05-26T08:59:47.794Z,29.01
2019-05-26T09:02:20.871Z,31.06
2019-05-26T09:04:53.209Z,34.57
2019-05-26T09:07:25.888Z,38.77
2019-05-26T09:09:58.372Z,42.31
2019-05-26T09:12:30.839Z,43.69
2019-05-26T09:15:04.859Z,43.12
2019-05-26T09:17:38.660Z,42.92
2019-05-26T09:20:11.950Z,45.31
2019-05-26T09:22:46.706Z,49.02
2019-05-26T09:25:19.475Z,50.07
2019-05-26T09:27:51.850Z,53.16
2019-05-26T09:30:24.167Z,54.79
2019-05-26T09:32:56.708Z,54.73
2019-05-26T09:35:28.860Z,51.11
2019-05-26T09:38:01.913Z,51.37
2019-05-26T09:40:34.213Z,55.06
2019-05-26T09:43:15.734Z,58.86
2019-05-26T09:45:41.508Z,68.67
2019-05-26T09:48:14.495Z,79.15
2019-05-26T09:50:46.760Z,85.75
2019-05-26T09:53:18.918Z,84.77
2019-05-26T09:55:51.274Z,88.01
2019-05-26T09:58:23.810Z,80.19
2019-05-26T10:00:56.159Z,77.61
2019-05-26T10:03:28.523Z,76.46
2019-05-26T10:06:00.910Z,70.90
2019-05-26T10:08:33.787Z,66.57
2019-05-26T10:11:06.597Z,64.81
2019-05-26T10:13:39.144Z,63.07
2019-05-26T10:16:11.432Z,57.72
2019-05-26T10:18:43.799Z,62.56
2019-05-26T10:21:16.223Z,55.78
2019-05-26T10:23:52.913Z,56.11
2019-05-26T10:26:22.943Z,59.16
2019-05-26T10:28:55.228Z,56.45
2019-05-26T10:31:27.282Z,53.46
2019-05-26T10:34:01.364Z,56.96
2019-05-26T10:36:33.766Z,57.72
2019-05-26T10:39:08.350Z,57.53
2019-05-26T10:41:40.672Z,57.24
2019-05-26T10:44:13.559Z,56.60
2019-05-26T10:46:46.200Z,57.99
2019-05-26T10:49:18.516Z,55.43
2019-05-26T10:51:50.774Z,53.09
2019-05-26T10:54:23.410Z,50.10
2019-05-26T10:56:55.882Z,49.08
2019-05-26T10:59:28.470Z,50.72
2019-05-26T11:02:00.769Z,54.42
2019-05-26T11:04:33.673Z,52.29
2019-05-26T11:07:07.343Z,51.98
2019-05-26T11:09:40.150Z,53.16
2019-05-26T11:12:12.689Z,50.96
2019-05-26T11:14:45.384Z,51.66
2019-05-26T11:17:17.765Z,51.34
2019-05-26T11:19:50.580Z,51.65
2019-05-26T11:22:23.047Z,50.52
2019-05-26T11:24:55.929Z,51.68
2019-05-26T11:27:28.341Z,50.65
2019-05-26T11:30:01.068Z,50.82
2019-05-26T11:32:34.253Z,54.79
2019-05-26T11:35:07.340Z,54.45
2019-05-26T11:37:40.863Z,57.13
2019-05-26T11:40:12.711Z,58.58
2019-05-26T11:42:45.344Z,57.99
2019-05-26T11:45:19.174Z,57.75
2019-05-26T11:47:51.722Z,57.79
2019-05-26T11:50:24.109Z,58.56
2019-05-26T11:52:56.401Z,58.30
2019-05-26T11:55:29.102Z,59.23
2019-05-26T11:58:01.258Z,58.71
2019-05-26T12:00:33.822Z,58.29
2019-05-26T12:03:05.904Z,59.76
2019-05-26T12:05:39.212Z,58.75
2019-05-26T12:08:11.272Z,59.15
2019-05-26T12:10:43.716Z,60.63
2019-05-26T12:13:16.305Z,59.27
2019-05-26T12:15:49.898Z,57.02
2019-05-26T12:18:22.371Z,53.36
2019-05-26T12:20:54.746Z,53.71
2019-05-26T12:23:27.110Z,53.96
2019-05-26T12:25:59.629Z,51.76
2019-05-26T12:28:31.744Z,52.61
2019-05-26T12:31:04.406Z,53.50
2019-05-26T12:33:36.826Z,53.33
2019-05-26T12:36:09.335Z,54.12
2019-05-26T12:38:53.848Z,53.01
2019-05-26T12:41:26.306Z,53.85
2019-05-26T13:58:48.369Z,70.44
2019-05-26T14:01:22.016Z,84.47
2019-05-26T14:03:54.841Z,91.42
2019-05-26T14:06:27.353Z,95.65
2019-05-26T14:09:02.352Z,100.00
2019-05-26T14:11:35.938Z,100.00
2019-05-26T14:14:09.028Z,100.00
2019-05-26T14:16:41.186Z,100.00
2019-05-26T14:19:14.172Z,100.00
2019-05-26T14:21:46.460Z,100.00
2019-05-26T14:24:19.156Z,100.00
2019-05-26T14:26:51.809Z,100.00
2019-05-26T14:29:25.494Z,100.00
2019-05-26T14:31:57.498Z,100.00
2019-05-26T14:34:29.837Z,99.27
2019-05-26T14:37:02.247Z,97.94
2019-05-26T14:39:35.224Z,98.19
2019-05-26T14:42:12.688Z,98.33
2019-05-26T14:44:45.485Z,97.22
2019-05-26T14:47:18.341Z,98.45
2019-05-26T14:49:50.810Z,93.08
2019-05-26T14:52:24.229Z,93.47
2019-05-26T14:54:56.800Z,90.16
2019-05-26T14:57:31.064Z,92.72
2019-05-26T15:00:05.223Z,89.63
2019-05-26T15:02:37.503Z,91.50
2019-05-26T15:05:11.313Z,91.68
2019-05-26T15:07:43.578Z,92.14
2019-05-26T15:10:16.251Z,88.24
2019-05-26T15:12:49.008Z,91.45
2019-05-26T15:15:21.886Z,93.06
2019-05-26T15:17:54.438Z,90.89
2019-05-26T15:20:27.292Z,92.26
2019-05-26T15:23:00.845Z,90.40
2019-05-26T15:25:33.933Z,91.79
2019-05-26T15:28:07.838Z,92.68
2019-05-26T15:30:40.478Z,90.67
2019-05-26T15:33:12.826Z,92.15
2019-05-26T15:35:45.665Z,90.73
2019-05-26T15:38:17.711Z,89.98
2019-05-26T15:40:50.179Z,87.40
2019-05-26T15:43:22.256Z,85.06
2019-05-26T15:45:54.783Z,87.94
2019-05-26T15:48:27.076Z,87.65
2019-05-26T15:51:00.994Z,88.49
2019-05-26T15:53:33.576Z,88.51
2019-05-26T15:56:06.642Z,87.85
2019-05-26T15:58:39.229Z,86.91
2019-05-26T16:01:14.191Z,90.14
2019-05-26T16:03:46.741Z,91.30
2019-05-26T16:06:20.122Z,90.77
2019-05-26T16:08:53.827Z,92.70
2019-05-26T16:11:26.095Z,90.85
2019-05-26T16:13:58.261Z,90.04
2019-05-26T16:16:40.578Z,87.84
2019-05-26T16:19:05.619Z,88.72
2019-05-26T16:21:38.563Z,87.11
2019-05-26T16:24:10.933Z,87.02
2019-05-26T16:26:43.838Z,88.72
2019-05-26T16:29:16.487Z,89.29
2019-05-26T16:31:48.682Z,88.20
2019-05-26T16:34:21.341Z,87.59
2019-05-26T16:36:54.044Z,89.25
2019-05-26T16:39:36.679Z,87.63
2019-05-26T16:42:01.076Z,89.11
2019-05-26T16:44:35.873Z,87.90
2019-05-26T16:47:09.747Z,88.88
2019-05-26T16:49:42.417Z,89.16
2019-05-26T16:52:15.288Z,92.17
2019-05-26T16:54:47.905Z,93.25
2019-05-26T16:57:20.497Z,92.79
2019-05-26T16:59:52.941Z,93.87
2019-05-26T17:02:26.564Z,96.01
2019-05-26T17:04:59.254Z,94.50
2019-05-26T17:07:31.783Z,95.74
2019-05-26T17:10:07.255Z,92.02
2019-05-26T17:12:41.469Z,93.11
2019-05-26T17:15:14.056Z,91.69
2019-05-26T17:17:46.600Z,88.80
2019-05-26T17:20:19.075Z,87.41
2019-05-26T17:22:51.973Z,87.81
2019-05-26T17:25:24.755Z,86.78
2019-05-26T17:27:57.227Z,90.43
2019-05-26T17:30:31.192Z,89.41
2019-05-26T17:33:03.861Z,91.01
2019-05-26T17:35:36.109Z,92.11
2019-05-26T17:38:08.669Z,92.76
2019-05-26T17:40:43.519Z,94.51
2019-05-26T17:43:16.280Z,96.19
2019-05-26T17:45:48.831Z,97.24
2019-05-26T17:48:21.318Z,97.71
2019-05-26T17:50:54.440Z,96.10
2019-05-26T17:53:26.979Z,97.39
2019-05-26T17:55:59.583Z,96.35
2019-05-26T17:58:32.445Z,95.50
2019-05-26T18:01:08.169Z,96.92
2019-05-26T18:03:41.058Z,94.15
2019-05-26T18:06:13.982Z,96.14
2019-05-26T18:08:46.892Z,98.60
2019-05-26T18:11:20.676Z,99.15
2019-05-26T18:13:54.716Z,100.00
2019-05-26T18:16:27.070Z,100.00
2019-05-26T18:19:00.031Z,100.00
2019-05-26T18:21:32.508Z,100.00
2019-05-26T18:24:04.884Z,100.00
2019-05-26T18:26:37.255Z,100.00
2019-05-26T18:29:09.925Z,100.00
2019-05-26T18:31:42.706Z,100.00
2019-05-26T18:34:15.714Z,100.00
2019-05-26T18:36:48.064Z,100.00
2019-05-26T18:39:21.871Z,100.00
2019-05-26T18:41:54.447Z,98.40
2019-05-26T18:44:27.216Z,100.00
2019-05-26T18:46:59.609Z,98.72
2019-05-26T18:49:34.153Z,100.00
2019-05-26T18:52:06.522Z,100.00
2019-05-26T18:54:39.417Z,100.00
2019-05-26T18:57:12.383Z,98.93
2019-05-26T18:59:44.662Z,99.93
2019-05-26T19:02:17.198Z,99.18
2019-05-26T19:04:49.979Z,100.00
2019-05-26T19:07:22.357Z,100.00
2019-05-26T19:09:55.143Z,98.66
2019-05-26T19:12:27.410Z,99.66
2019-05-26T19:15:00.221Z,98.89
2019-05-26T19:17:32.876Z,99.68
2019-05-26T19:20:16.190Z,97.58
2019-05-26T19:22:43.364Z,98.30
2019-05-26T19:25:16.042Z,97.96
2019-05-26T19:27:49.646Z,98.01
2019-05-26T19:30:22.423Z,97.58
2019-05-26T19:32:59.580Z,98.09
2019-05-26T19:35:31.976Z,97.58
2019-05-26T19:38:04.546Z,99.04
2019-05-26T19:40:37.336Z,99.14
2019-05-26T19:43:09.615Z,97.54
2019-05-26T19:45:42.222Z,96.79
2019-05-26T19:48:14.757Z,93.31
2019-05-26T19:50:47.176Z,96.85
2019-05-26T19:53:19.388Z,95.56
2019-05-26T19:55:51.853Z,95.67
2019-05-26T19:58:24.127Z,96.13
2019-05-26T20:00:56.604Z,96.27
2019-05-26T20:03:28.859Z,98.91
2019-05-26T20:06:02.405Z,100.00
2019-05-26T20:08:35.130Z,100.00
2019-05-26T20:11:07.539Z,95.32
2019-05-26T20:13:39.765Z,97.91
2019-05-26T20:16:12.225Z,95.30
2019-05-26T20:18:44.556Z,94.01
2019-05-26T20:21:17.052Z,92.41
2019-05-26T20:23:49.278Z,90.89
2019-05-26T20:26:21.612Z,91.62
2019-05-26T20:28:53.897Z,90.55
2019-05-26T20:31:26.270Z,86.87
2019-05-26T20:33:58.441Z,88.79
2019-05-26T20:36:31.005Z,91.60
2019-05-26T20:39:03.295Z,88.42
2019-05-26T20:41:36.802Z,89.30
2019-05-26T20:44:09.072Z,90.81
2019-05-26T20:46:41.456Z,92.40
2019-05-26T20:49:13.732Z,88.31
2019-05-26T20:51:46.127Z,85.58
2019-05-26T20:54:18.669Z,85.95
2019-05-26T20:56:52.942Z,88.13
2019-05-26T20:59:25.158Z,85.76
2019-05-26T21:01:57.716Z,85.48
2019-05-26T21:04:29.974Z,83.72
2019-05-26T21:07:02.737Z,84.13
2019-05-26T21:09:35.309Z,85.27
2019-05-26T21:12:08.167Z,83.24
2019-05-26T21:14:40.629Z,83.54
2019-05-26T21:17:13.404Z,81.02
2019-05-26T21:19:45.872Z,79.96
2019-05-26T21:22:18.555Z,83.21
2019-05-26T21:24:51.135Z,81.85
2019-05-26T21:27:23.667Z,81.75
2019-05-26T21:29:57.514Z,79.78
2019-05-26T21:32:31.361Z,79.92
2019-05-26T21:35:07.681Z,81.62
2019-05-26T21:37:40.484Z,82.62
2019-05-26T21:40:13.668Z,83.42
2019-05-26T21:42:46.045Z,83.38
2019-05-26T21:45:18.512Z,83.64
2019-05-26T21:47:51.079Z,86.39
2019-05-26T21:50:23.688Z,86.31
2019-05-26T21:52:56.150Z,84.61
2019-05-26T21:55:28.726Z,80.56
2019-05-26T21:58:01.278Z,82.62
2019-05-26T22:00:35.345Z,81.44
2019-05-26T22:03:08.264Z,83.97
2019-05-26T22:05:40.323Z,81.21
2019-05-26T22:08:13.005Z,81.35
2019-05-26T22:10:45.388Z,82.05
2019-05-26T22:13:17.650Z,83.60
2019-05-26T22:15:49.790Z,83.76
2019-05-26T22:18:22.424Z,87.23
2019-05-26T22:20:54.580Z,88.87
2019-05-26T22:23:26.742Z,84.48
2019-05-26T22:25:58.952Z,87.21
2019-05-26T22:28:31.304Z,84.53
2019-05-26T22:31:03.574Z,85.59
2019-05-26T22:33:35.985Z,84.44
2019-05-26T22:36:08.213Z,85.11
2019-05-26T22:38:40.439Z,84.55
2019-05-26T22:41:12.591Z,84.78
2019-05-26T22:43:44.761Z,84.79
2019-05-26T22:46:16.927Z,86.90
2019-05-26T22:48:49.288Z,87.48
2019-05-26T22:51:21.709Z,87.12
2019-05-26T22:53:54.280Z,86.81
2019-05-26T22:56:26.859Z,89.22
2019-05-26T22:58:59.140Z,89.47
2019-05-26T23:01:32.470Z,89.52
2019-05-26T23:04:05.308Z,89.80
2019-05-26T23:06:37.684Z,89.17
2019-05-26T23:09:10.774Z,89.66
2019-05-26T23:11:43.484Z,90.55
2019-05-26T23:14:16.857Z,88.20
2019-05-26T23:16:49.315Z,91.93
2019-05-26T23:19:21.894Z,90.96
2019-05-26T23:21:54.675Z,90.74
2019-05-26T23:24:27.281Z,89.39
2019-05-26T23:26:59.414Z,89.43
2019-05-26T23:29:31.502Z,88.54
2019-05-26T23:32:03.797Z,88.84
2019-05-26T23:34:36.000Z,90.61
2019-05-26T23:37:08.305Z,89.24
2019-05-26T23:39:40.483Z,89.49
2019-05-26T23:42:12.787Z,90.14
2019-05-26T23:44:46.052Z,90.51
2019-05-26T23:47:18.255Z,90.33
2019-05-26T23:49:51.564Z,90.17
2019-05-26T23:52:23.834Z,90.21
2019-05-26T23:54:56.070Z,90.50
2019-05-26T23:57:28.178Z,90.53
